sensor_id;sensor_type;location;lat;lon;timestamp;P1;durP1;ratioP1;P2;durP2;ratioP2
75289;SDS011;63883;48.996;20.804;2023-02-15T00:01:25;31.58;;;13.35;;
75289;SDS011;63883;48.996;20.804;2023-02-15T00:03:51;32.22;;;13.57;;
75289;SDS011;63883;48.996;20.804;2023-02-15T00:06:17;26.98;;;12.30;;
75289;SDS011;63883;48.996;20.804;2023-02-15T00:08:43;28.48;;;13.00;;
75289;SDS011;63883;48.996;20.804;2023-02-15T00:11:10;29.75;;;12.48;;
75289;SDS011;63883;48.996;20.804;2023-02-15T00:13:41;28.23;;;11.77;;
75289;SDS011;63883;48.996;20.804;2023-02-15T00:16:08;25.60;;;13.13;;
75289;SDS011;63883;48.996;20.804;2023-02-15T00:18:36;28.90;;;11.80;;
75289;SDS011;63883;48.996;20.804;2023-02-15T00:21:04;31.42;;;14.13;;
75289;SDS011;63883;48.996;20.804;2023-02-15T00:23:34;31.92;;;12.48;;
75289;SDS011;63883;48.996;20.804;2023-02-15T00:26:10;28.05;;;11.90;;
75289;SDS011;63883;48.996;20.804;2023-02-15T00:28:37;25.92;;;12.02;;
75289;SDS011;63883;48.996;20.804;2023-02-15T00:31:07;25.48;;;11.85;;
75289;SDS011;63883;48.996;20.804;2023-02-15T00:33:37;35.65;;;14.27;;
75289;SDS011;63883;48.996;20.804;2023-02-15T00:36:04;34.53;;;13.40;;
75289;SDS011;63883;48.996;20.804;2023-02-15T00:38:32;28.55;;;12.80;;
75289;SDS011;63883;48.996;20.804;2023-02-15T00:41:00;26.98;;;11.93;;
75289;SDS011;63883;48.996;20.804;2023-02-15T00:43:27;31.90;;;13.00;;
75289;SDS011;63883;48.996;20.804;2023-02-15T00:45:54;33.92;;;14.02;;
75289;SDS011;63883;48.996;20.804;2023-02-15T00:48:20;32.42;;;12.45;;
75289;SDS011;63883;48.996;20.804;2023-02-15T00:50:47;34.25;;;13.73;;
75289;SDS011;63883;48.996;20.804;2023-02-15T00:53:15;37.83;;;14.18;;
75289;SDS011;63883;48.996;20.804;2023-02-15T00:55:41;32.53;;;12.48;;
75289;SDS011;63883;48.996;20.804;2023-02-15T00:58:07;37.15;;;15.00;;
75289;SDS011;63883;48.996;20.804;2023-02-15T01:00:34;35.53;;;13.93;;
75289;SDS011;63883;48.996;20.804;2023-02-15T01:03:01;35.10;;;13.50;;
75289;SDS011;63883;48.996;20.804;2023-02-15T01:05:27;29.73;;;12.95;;
75289;SDS011;63883;48.996;20.804;2023-02-15T01:07:55;28.95;;;12.90;;
75289;SDS011;63883;48.996;20.804;2023-02-15T01:10:21;31.73;;;14.43;;
75289;SDS011;63883;48.996;20.804;2023-02-15T01:12:47;33.97;;;14.30;;
75289;SDS011;63883;48.996;20.804;2023-02-15T01:15:13;31.88;;;13.77;;
75289;SDS011;63883;48.996;20.804;2023-02-15T01:17:39;33.42;;;12.95;;
75289;SDS011;63883;48.996;20.804;2023-02-15T01:20:05;27.60;;;12.43;;
75289;SDS011;63883;48.996;20.804;2023-02-15T01:22:32;31.05;;;13.95;;
75289;SDS011;63883;48.996;20.804;2023-02-15T01:24:57;35.13;;;15.52;;
75289;SDS011;63883;48.996;20.804;2023-02-15T01:27:23;38.95;;;15.80;;
75289;SDS011;63883;48.996;20.804;2023-02-15T01:29:49;33.20;;;14.02;;
75289;SDS011;63883;48.996;20.804;2023-02-15T01:32:15;32.90;;;14.07;;
75289;SDS011;63883;48.996;20.804;2023-02-15T01:34:40;34.10;;;14.25;;
75289;SDS011;63883;48.996;20.804;2023-02-15T01:37:06;28.48;;;12.95;;
75289;SDS011;63883;48.996;20.804;2023-02-15T01:39:32;27.20;;;11.50;;
75289;SDS011;63883;48.996;20.804;2023-02-15T01:41:58;27.83;;;11.27;;
75289;SDS011;63883;48.996;20.804;2023-02-15T01:47:13;24.73;;;11.43;;
75289;SDS011;63883;48.996;20.804;2023-02-15T01:49:48;24.75;;;10.68;;
75289;SDS011;63883;48.996;20.804;2023-02-15T01:52:27;26.98;;;11.82;;
75289;SDS011;63883;48.996;20.804;2023-02-15T01:54:54;26.45;;;12.27;;
75289;SDS011;63883;48.996;20.804;2023-02-15T01:57:21;31.60;;;12.93;;
75289;SDS011;63883;48.996;20.804;2023-02-15T01:59:50;28.98;;;13.15;;
75289;SDS011;63883;48.996;20.804;2023-02-15T02:02:20;30.17;;;13.43;;
75289;SDS011;63883;48.996;20.804;2023-02-15T02:04:50;30.23;;;12.68;;
75289;SDS011;63883;48.996;20.804;2023-02-15T02:07:22;31.20;;;13.25;;
75289;SDS011;63883;48.996;20.804;2023-02-15T02:09:51;32.30;;;14.07;;
75289;SDS011;63883;48.996;20.804;2023-02-15T02:12:17;36.05;;;14.63;;
75289;SDS011;63883;48.996;20.804;2023-02-15T02:14:45;38.70;;;15.57;;
75289;SDS011;63883;48.996;20.804;2023-02-15T02:17:24;39.22;;;16.65;;
75289;SDS011;63883;48.996;20.804;2023-02-15T02:36:19;26.23;;;12.77;;
75289;SDS011;63883;48.996;20.804;2023-02-15T02:44:53;29.67;;;12.60;;
75289;SDS011;63883;48.996;20.804;2023-02-15T02:49:42;26.85;;;11.95;;
75289;SDS011;63883;48.996;20.804;2023-02-15T03:02:47;30.42;;;12.93;;
75289;SDS011;63883;48.996;20.804;2023-02-15T03:05:19;30.20;;;13.23;;
75289;SDS011;63883;48.996;20.804;2023-02-15T03:07:49;33.35;;;13.43;;
75289;SDS011;63883;48.996;20.804;2023-02-15T03:10:18;29.35;;;13.48;;
75289;SDS011;63883;48.996;20.804;2023-02-15T03:12:47;29.65;;;13.52;;
75289;SDS011;63883;48.996;20.804;2023-02-15T03:15:21;29.50;;;14.07;;
75289;SDS011;63883;48.996;20.804;2023-02-15T03:17:51;33.42;;;13.57;;
75289;SDS011;63883;48.996;20.804;2023-02-15T03:22:51;28.25;;;12.80;;
75289;SDS011;63883;48.996;20.804;2023-02-15T03:28:07;28.25;;;12.35;;
75289;SDS011;63883;48.996;20.804;2023-02-15T03:30:37;26.60;;;11.77;;
75289;SDS011;63883;48.996;20.804;2023-02-15T03:33:07;25.42;;;10.95;;
75289;SDS011;63883;48.996;20.804;2023-02-15T03:35:54;24.25;;;11.57;;
75289;SDS011;63883;48.996;20.804;2023-02-15T03:38:40;25.80;;;11.27;;
75289;SDS011;63883;48.996;20.804;2023-02-15T03:41:13;26.02;;;11.95;;
75289;SDS011;63883;48.996;20.804;2023-02-15T03:46:13;28.70;;;11.73;;
75289;SDS011;63883;48.996;20.804;2023-02-15T03:48:47;26.48;;;11.43;;
75289;SDS011;63883;48.996;20.804;2023-02-15T03:51:18;31.20;;;12.57;;
75289;SDS011;63883;48.996;20.804;2023-02-15T03:54:15;29.55;;;12.50;;
75289;SDS011;63883;48.996;20.804;2023-02-15T03:57:06;29.30;;;11.75;;
75289;SDS011;63883;48.996;20.804;2023-02-15T03:59:52;26.15;;;10.80;;
75289;SDS011;63883;48.996;20.804;2023-02-15T04:02:38;29.15;;;11.95;;
75289;SDS011;63883;48.996;20.804;2023-02-15T04:05:09;28.55;;;12.32;;
75289;SDS011;63883;48.996;20.804;2023-02-15T04:07:35;27.10;;;11.82;;
75289;SDS011;63883;48.996;20.804;2023-02-15T04:10:01;26.98;;;12.23;;
75289;SDS011;63883;48.996;20.804;2023-02-15T04:12:45;26.60;;;11.48;;
75289;SDS011;63883;48.996;20.804;2023-02-15T04:15:13;27.42;;;11.30;;
75289;SDS011;63883;48.996;20.804;2023-02-15T04:17:58;26.23;;;11.45;;
75289;SDS011;63883;48.996;20.804;2023-02-15T04:20:23;25.33;;;11.90;;
75289;SDS011;63883;48.996;20.804;2023-02-15T04:23:07;26.00;;;11.80;;
75289;SDS011;63883;48.996;20.804;2023-02-15T04:25:51;23.55;;;10.80;;
75289;SDS011;63883;48.996;20.804;2023-02-15T04:28:17;26.23;;;11.52;;
75289;SDS011;63883;48.996;20.804;2023-02-15T04:30:43;24.08;;;11.80;;
75289;SDS011;63883;48.996;20.804;2023-02-15T04:33:08;26.52;;;11.38;;
75289;SDS011;63883;48.996;20.804;2023-02-15T04:35:34;26.33;;;12.13;;
75289;SDS011;63883;48.996;20.804;2023-02-15T04:38:00;25.23;;;11.93;;
75289;SDS011;63883;48.996;20.804;2023-02-15T04:40:26;29.95;;;12.82;;
75289;SDS011;63883;48.996;20.804;2023-02-15T04:42:52;31.98;;;13.25;;
75289;SDS011;63883;48.996;20.804;2023-02-15T04:45:17;32.25;;;12.63;;
75289;SDS011;63883;48.996;20.804;2023-02-15T04:47:44;34.38;;;13.98;;
75289;SDS011;63883;48.996;20.804;2023-02-15T04:50:10;32.10;;;13.45;;
75289;SDS011;63883;48.996;20.804;2023-02-15T04:52:36;31.55;;;13.32;;
75289;SDS011;63883;48.996;20.804;2023-02-15T04:55:01;29.63;;;13.20;;
75289;SDS011;63883;48.996;20.804;2023-02-15T04:57:27;27.90;;;12.75;;
75289;SDS011;63883;48.996;20.804;2023-02-15T04:59:53;27.65;;;12.45;;
75289;SDS011;63883;48.996;20.804;2023-02-15T05:02:19;24.33;;;11.15;;
75289;SDS011;63883;48.996;20.804;2023-02-15T05:04:44;27.42;;;12.50;;
75289;SDS011;63883;48.996;20.804;2023-02-15T05:07:10;26.85;;;11.05;;
75289;SDS011;63883;48.996;20.804;2023-02-15T05:09:36;25.98;;;11.55;;
75289;SDS011;63883;48.996;20.804;2023-02-15T05:12:02;27.40;;;10.15;;
75289;SDS011;63883;48.996;20.804;2023-02-15T05:14:27;24.30;;;9.88;;
75289;SDS011;63883;48.996;20.804;2023-02-15T05:16:53;25.25;;;10.07;;
75289;SDS011;63883;48.996;20.804;2023-02-15T05:19:19;26.27;;;10.20;;
75289;SDS011;63883;48.996;20.804;2023-02-15T05:21:45;23.67;;;9.95;;
75289;SDS011;63883;48.996;20.804;2023-02-15T05:24:11;31.23;;;11.35;;
75289;SDS011;63883;48.996;20.804;2023-02-15T05:26:55;25.55;;;10.05;;
75289;SDS011;63883;48.996;20.804;2023-02-15T05:29:39;24.67;;;9.15;;
75289;SDS011;63883;48.996;20.804;2023-02-15T05:32:05;24.05;;;9.32;;
75289;SDS011;63883;48.996;20.804;2023-02-15T05:34:30;27.25;;;11.32;;
75289;SDS011;63883;48.996;20.804;2023-02-15T05:36:56;28.42;;;11.45;;
75289;SDS011;63883;48.996;20.804;2023-02-15T05:39:22;25.15;;;10.88;;
75289;SDS011;63883;48.996;20.804;2023-02-15T05:41:47;24.75;;;10.00;;
75289;SDS011;63883;48.996;20.804;2023-02-15T05:44:13;26.58;;;12.43;;
75289;SDS011;63883;48.996;20.804;2023-02-15T05:46:39;29.65;;;11.27;;
75289;SDS011;63883;48.996;20.804;2023-02-15T05:49:04;29.23;;;11.48;;
75289;SDS011;63883;48.996;20.804;2023-02-15T05:51:31;29.30;;;12.13;;
75289;SDS011;63883;48.996;20.804;2023-02-15T05:53:57;28.75;;;12.43;;
75289;SDS011;63883;48.996;20.804;2023-02-15T05:56:23;27.48;;;11.40;;
75289;SDS011;63883;48.996;20.804;2023-02-15T05:58:48;29.67;;;12.02;;
75289;SDS011;63883;48.996;20.804;2023-02-15T06:01:15;29.75;;;12.38;;
75289;SDS011;63883;48.996;20.804;2023-02-15T06:03:42;31.33;;;12.45;;
75289;SDS011;63883;48.996;20.804;2023-02-15T06:06:09;30.50;;;11.93;;
75289;SDS011;63883;48.996;20.804;2023-02-15T06:08:35;29.50;;;12.73;;
75289;SDS011;63883;48.996;20.804;2023-02-15T06:11:02;33.25;;;12.77;;
75289;SDS011;63883;48.996;20.804;2023-02-15T06:13:29;32.25;;;13.43;;
75289;SDS011;63883;48.996;20.804;2023-02-15T06:15:55;30.85;;;12.15;;
75289;SDS011;63883;48.996;20.804;2023-02-15T06:18:21;32.28;;;12.18;;
75289;SDS011;63883;48.996;20.804;2023-02-15T06:20:47;27.80;;;12.02;;
75289;SDS011;63883;48.996;20.804;2023-02-15T06:23:12;30.70;;;12.40;;
75289;SDS011;63883;48.996;20.804;2023-02-15T06:25:38;26.80;;;11.80;;
75289;SDS011;63883;48.996;20.804;2023-02-15T06:28:04;28.60;;;11.60;;
75289;SDS011;63883;48.996;20.804;2023-02-15T06:30:30;31.73;;;12.77;;
75289;SDS011;63883;48.996;20.804;2023-02-15T06:32:56;31.00;;;11.88;;
75289;SDS011;63883;48.996;20.804;2023-02-15T06:35:22;29.15;;;11.45;;
75289;SDS011;63883;48.996;20.804;2023-02-15T06:37:48;32.50;;;12.10;;
75289;SDS011;63883;48.996;20.804;2023-02-15T06:40:14;33.13;;;12.10;;
75289;SDS011;63883;48.996;20.804;2023-02-15T06:42:40;33.45;;;12.15;;
75289;SDS011;63883;48.996;20.804;2023-02-15T06:45:07;30.98;;;11.05;;
75289;SDS011;63883;48.996;20.804;2023-02-15T06:47:33;29.92;;;11.63;;
75289;SDS011;63883;48.996;20.804;2023-02-15T06:49:59;34.83;;;12.02;;
75289;SDS011;63883;48.996;20.804;2023-02-15T06:52:25;34.40;;;12.18;;
75289;SDS011;63883;48.996;20.804;2023-02-15T06:54:51;28.35;;;11.18;;
75289;SDS011;63883;48.996;20.804;2023-02-15T06:57:17;33.10;;;11.77;;
75289;SDS011;63883;48.996;20.804;2023-02-15T06:59:42;34.90;;;12.73;;
75289;SDS011;63883;48.996;20.804;2023-02-15T07:02:12;31.85;;;12.95;;
75289;SDS011;63883;48.996;20.804;2023-02-15T07:04:38;32.45;;;13.02;;
75289;SDS011;63883;48.996;20.804;2023-02-15T07:07:04;33.03;;;12.13;;
75289;SDS011;63883;48.996;20.804;2023-02-15T07:09:32;38.45;;;13.10;;
75289;SDS011;63883;48.996;20.804;2023-02-15T07:11:58;34.80;;;12.85;;
75289;SDS011;63883;48.996;20.804;2023-02-15T07:14:42;33.40;;;12.10;;
75289;SDS011;63883;48.996;20.804;2023-02-15T07:17:08;33.28;;;11.90;;
75289;SDS011;63883;48.996;20.804;2023-02-15T07:19:34;35.58;;;12.48;;
75289;SDS011;63883;48.996;20.804;2023-02-15T07:21:59;35.63;;;13.70;;
75289;SDS011;63883;48.996;20.804;2023-02-15T07:24:25;38.95;;;13.75;;
75289;SDS011;63883;48.996;20.804;2023-02-15T07:26:51;37.08;;;13.02;;
75289;SDS011;63883;48.996;20.804;2023-02-15T07:29:17;35.13;;;14.27;;
75289;SDS011;63883;48.996;20.804;2023-02-15T07:31:43;33.83;;;13.60;;
75289;SDS011;63883;48.996;20.804;2023-02-15T07:34:10;39.17;;;12.73;;
75289;SDS011;63883;48.996;20.804;2023-02-15T07:36:36;33.55;;;13.07;;
75289;SDS011;63883;48.996;20.804;2023-02-15T07:39:02;35.67;;;12.48;;
75289;SDS011;63883;48.996;20.804;2023-02-15T07:41:28;34.35;;;12.75;;
75289;SDS011;63883;48.996;20.804;2023-02-15T07:43:54;35.25;;;11.75;;
75289;SDS011;63883;48.996;20.804;2023-02-15T07:46:20;30.67;;;12.25;;
75289;SDS011;63883;48.996;20.804;2023-02-15T07:48:46;29.88;;;11.38;;
75289;SDS011;63883;48.996;20.804;2023-02-15T07:51:12;31.52;;;12.13;;
75289;SDS011;63883;48.996;20.804;2023-02-15T07:53:39;27.17;;;11.85;;
75289;SDS011;63883;48.996;20.804;2023-02-15T07:56:06;38.72;;;13.32;;
75289;SDS011;63883;48.996;20.804;2023-02-15T07:58:35;28.23;;;11.23;;
75289;SDS011;63883;48.996;20.804;2023-02-15T08:03:48;25.60;;;11.13;;
75289;SDS011;63883;48.996;20.804;2023-02-15T08:06:14;32.33;;;11.60;;
75289;SDS011;63883;48.996;20.804;2023-02-15T08:08:40;32.17;;;11.50;;
75289;SDS011;63883;48.996;20.804;2023-02-15T08:11:20;27.52;;;10.23;;
75289;SDS011;63883;48.996;20.804;2023-02-15T08:13:52;28.95;;;10.55;;
75289;SDS011;63883;48.996;20.804;2023-02-15T08:18:53;28.50;;;10.27;;
75289;SDS011;63883;48.996;20.804;2023-02-15T08:21:20;30.20;;;10.43;;
75289;SDS011;63883;48.996;20.804;2023-02-15T08:23:47;23.95;;;9.13;;
75289;SDS011;63883;48.996;20.804;2023-02-15T08:26:12;21.70;;;8.68;;
75289;SDS011;63883;48.996;20.804;2023-02-15T08:28:39;28.00;;;10.93;;
75289;SDS011;63883;48.996;20.804;2023-02-15T08:31:06;25.45;;;9.70;;
75289;SDS011;63883;48.996;20.804;2023-02-15T08:33:34;23.58;;;9.05;;
75289;SDS011;63883;48.996;20.804;2023-02-15T08:36:08;25.90;;;10.13;;
75289;SDS011;63883;48.996;20.804;2023-02-15T08:38:36;22.10;;;8.88;;
75289;SDS011;63883;48.996;20.804;2023-02-15T08:41:36;26.77;;;10.88;;
75289;SDS011;63883;48.996;20.804;2023-02-15T08:43:57;25.58;;;10.75;;
75289;SDS011;63883;48.996;20.804;2023-02-15T08:46:25;24.38;;;10.30;;
75289;SDS011;63883;48.996;20.804;2023-02-15T08:48:52;24.67;;;9.93;;
75289;SDS011;63883;48.996;20.804;2023-02-15T08:51:22;24.77;;;10.10;;
75289;SDS011;63883;48.996;20.804;2023-02-15T08:53:53;27.25;;;11.43;;
75289;SDS011;63883;48.996;20.804;2023-02-15T08:56:22;25.65;;;10.18;;
75289;SDS011;63883;48.996;20.804;2023-02-15T08:58:49;26.20;;;10.63;;
75289;SDS011;63883;48.996;20.804;2023-02-15T09:01:16;22.90;;;10.00;;
75289;SDS011;63883;48.996;20.804;2023-02-15T09:03:45;26.98;;;10.27;;
75289;SDS011;63883;48.996;20.804;2023-02-15T09:06:11;27.77;;;11.27;;
75289;SDS011;63883;48.996;20.804;2023-02-15T09:08:38;30.33;;;12.05;;
75289;SDS011;63883;48.996;20.804;2023-02-15T09:11:12;27.67;;;11.23;;
75289;SDS011;63883;48.996;20.804;2023-02-15T09:13:48;27.65;;;10.77;;
75289;SDS011;63883;48.996;20.804;2023-02-15T09:16:15;27.35;;;11.23;;
75289;SDS011;63883;48.996;20.804;2023-02-15T09:18:43;25.98;;;10.27;;
75289;SDS011;63883;48.996;20.804;2023-02-15T09:21:10;26.10;;;10.40;;
75289;SDS011;63883;48.996;20.804;2023-02-15T09:23:41;26.33;;;10.77;;
75289;SDS011;63883;48.996;20.804;2023-02-15T09:26:09;26.73;;;11.63;;
75289;SDS011;63883;48.996;20.804;2023-02-15T09:28:37;27.25;;;11.88;;
75289;SDS011;63883;48.996;20.804;2023-02-15T09:33:33;26.55;;;10.18;;
75289;SDS011;63883;48.996;20.804;2023-02-15T09:36:00;29.33;;;10.98;;
75289;SDS011;63883;48.996;20.804;2023-02-15T09:38:26;27.50;;;11.93;;
75289;SDS011;63883;48.996;20.804;2023-02-15T09:41:16;32.30;;;11.55;;
75289;SDS011;63883;48.996;20.804;2023-02-15T09:43:39;26.40;;;10.85;;
75289;SDS011;63883;48.996;20.804;2023-02-15T09:46:19;26.17;;;10.85;;
75289;SDS011;63883;48.996;20.804;2023-02-15T09:48:51;28.10;;;10.77;;
75289;SDS011;63883;48.996;20.804;2023-02-15T09:54:02;29.17;;;11.63;;
75289;SDS011;63883;48.996;20.804;2023-02-15T10:07:49;28.67;;;10.95;;
75289;SDS011;63883;48.996;20.804;2023-02-15T10:10:49;26.67;;;10.25;;
75289;SDS011;63883;48.996;20.804;2023-02-15T10:13:49;27.60;;;10.65;;
75289;SDS011;63883;48.996;20.804;2023-02-15T10:16:40;28.42;;;11.30;;
75289;SDS011;63883;48.996;20.804;2023-02-15T10:19:20;23.98;;;10.38;;
75289;SDS011;63883;48.996;20.804;2023-02-15T10:27:22;30.83;;;12.13;;
75289;SDS011;63883;48.996;20.804;2023-02-15T10:30:08;25.50;;;10.48;;
75289;SDS011;63883;48.996;20.804;2023-02-15T10:35:31;27.60;;;12.07;;
75289;SDS011;63883;48.996;20.804;2023-02-15T10:38:25;26.33;;;11.70;;
75289;SDS011;63883;48.996;20.804;2023-02-15T10:40:56;28.10;;;10.48;;
75289;SDS011;63883;48.996;20.804;2023-02-15T10:54:41;28.70;;;13.57;;
75289;SDS011;63883;48.996;20.804;2023-02-15T11:06:24;25.20;;;13.38;;
75289;SDS011;63883;48.996;20.804;2023-02-15T11:08:49;29.08;;;13.40;;
75289;SDS011;63883;48.996;20.804;2023-02-15T11:11:35;27.77;;;13.55;;
75289;SDS011;63883;48.996;20.804;2023-02-15T11:14:12;30.98;;;13.82;;
75289;SDS011;63883;48.996;20.804;2023-02-15T11:16:45;24.55;;;11.65;;
75289;SDS011;63883;48.996;20.804;2023-02-15T11:19:17;24.70;;;12.02;;
75289;SDS011;63883;48.996;20.804;2023-02-15T11:21:47;23.65;;;11.23;;
75289;SDS011;63883;48.996;20.804;2023-02-15T11:24:19;23.60;;;11.30;;
75289;SDS011;63883;48.996;20.804;2023-02-15T11:26:47;23.00;;;11.90;;
75289;SDS011;63883;48.996;20.804;2023-02-15T11:32:14;25.80;;;11.45;;
75289;SDS011;63883;48.996;20.804;2023-02-15T11:34:56;24.83;;;11.82;;
75289;SDS011;63883;48.996;20.804;2023-02-15T11:37:51;22.90;;;11.50;;
75289;SDS011;63883;48.996;20.804;2023-02-15T11:42:51;23.83;;;11.98;;
75289;SDS011;63883;48.996;20.804;2023-02-15T11:47:45;25.23;;;12.32;;
75289;SDS011;63883;48.996;20.804;2023-02-15T11:50:15;25.60;;;12.73;;
75289;SDS011;63883;48.996;20.804;2023-02-15T11:52:43;26.48;;;12.25;;
75289;SDS011;63883;48.996;20.804;2023-02-15T11:55:13;22.42;;;11.45;;
75289;SDS011;63883;48.996;20.804;2023-02-15T11:57:44;25.50;;;12.70;;
75289;SDS011;63883;48.996;20.804;2023-02-15T12:03:17;26.42;;;12.05;;
75289;SDS011;63883;48.996;20.804;2023-02-15T12:05:49;22.52;;;12.13;;
75289;SDS011;63883;48.996;20.804;2023-02-15T12:08:21;26.15;;;11.35;;
75289;SDS011;63883;48.996;20.804;2023-02-15T12:13:26;25.95;;;11.32;;
75289;SDS011;63883;48.996;20.804;2023-02-15T12:15:55;20.90;;;10.80;;
75289;SDS011;63883;48.996;20.804;2023-02-15T12:21:39;23.02;;;11.77;;
75289;SDS011;63883;48.996;20.804;2023-02-15T12:24:13;23.90;;;11.60;;
75289;SDS011;63883;48.996;20.804;2023-02-15T12:26:44;23.58;;;11.63;;
75289;SDS011;63883;48.996;20.804;2023-02-15T12:29:22;22.77;;;12.27;;
75289;SDS011;63883;48.996;20.804;2023-02-15T12:31:52;22.30;;;11.82;;
75289;SDS011;63883;48.996;20.804;2023-02-15T12:34:21;21.92;;;10.15;;
75289;SDS011;63883;48.996;20.804;2023-02-15T12:36:54;22.33;;;11.68;;
75289;SDS011;63883;48.996;20.804;2023-02-15T12:39:26;22.75;;;10.70;;
75289;SDS011;63883;48.996;20.804;2023-02-15T12:44:20;26.30;;;12.13;;
75289;SDS011;63883;48.996;20.804;2023-02-15T12:49:33;21.35;;;10.45;;
75289;SDS011;63883;48.996;20.804;2023-02-15T12:52:01;21.85;;;9.98;;
75289;SDS011;63883;48.996;20.804;2023-02-15T12:54:31;24.50;;;12.95;;
75289;SDS011;63883;48.996;20.804;2023-02-15T12:56:57;30.98;;;15.40;;
75289;SDS011;63883;48.996;20.804;2023-02-15T12:59:23;24.23;;;12.52;;
75289;SDS011;63883;48.996;20.804;2023-02-15T13:01:51;23.83;;;11.65;;
75289;SDS011;63883;48.996;20.804;2023-02-15T13:04:28;28.85;;;13.25;;
75289;SDS011;63883;48.996;20.804;2023-02-15T13:06:55;24.13;;;12.85;;
75289;SDS011;63883;48.996;20.804;2023-02-15T13:12:09;27.63;;;14.27;;
75289;SDS011;63883;48.996;20.804;2023-02-15T13:14:38;26.48;;;13.00;;
75289;SDS011;63883;48.996;20.804;2023-02-15T13:17:10;23.85;;;12.40;;
75289;SDS011;63883;48.996;20.804;2023-02-15T13:19:43;23.30;;;12.63;;
75289;SDS011;63883;48.996;20.804;2023-02-15T13:22:16;24.88;;;12.15;;
75289;SDS011;63883;48.996;20.804;2023-02-15T13:24:47;23.42;;;11.88;;
75289;SDS011;63883;48.996;20.804;2023-02-15T13:27:16;25.63;;;12.65;;
75289;SDS011;63883;48.996;20.804;2023-02-15T13:29:50;24.02;;;11.65;;
75289;SDS011;63883;48.996;20.804;2023-02-15T13:32:31;24.50;;;12.68;;
75289;SDS011;63883;48.996;20.804;2023-02-15T13:35:02;27.90;;;13.75;;
75289;SDS011;63883;48.996;20.804;2023-02-15T13:37:45;29.67;;;15.38;;
75289;SDS011;63883;48.996;20.804;2023-02-15T13:40:37;35.67;;;16.20;;
75289;SDS011;63883;48.996;20.804;2023-02-15T14:10:38;23.83;;;13.10;;
75289;SDS011;63883;48.996;20.804;2023-02-15T14:21:34;23.58;;;12.15;;
75289;SDS011;63883;48.996;20.804;2023-02-15T14:26:44;27.45;;;14.07;;
75289;SDS011;63883;48.996;20.804;2023-02-15T14:29:16;38.67;;;18.75;;
75289;SDS011;63883;48.996;20.804;2023-02-15T14:31:54;34.40;;;17.15;;
75289;SDS011;63883;48.996;20.804;2023-02-15T14:34:26;30.90;;;14.52;;
75289;SDS011;63883;48.996;20.804;2023-02-15T14:36:57;30.15;;;14.80;;
75289;SDS011;63883;48.996;20.804;2023-02-15T14:42:25;22.42;;;11.73;;
75289;SDS011;63883;48.996;20.804;2023-02-15T14:45:17;23.70;;;12.23;;
75289;SDS011;63883;48.996;20.804;2023-02-15T14:48:30;24.95;;;12.98;;
75289;SDS011;63883;48.996;20.804;2023-02-15T14:50:42;24.58;;;11.38;;
75289;SDS011;63883;48.996;20.804;2023-02-15T14:56:04;26.33;;;14.07;;
75289;SDS011;63883;48.996;20.804;2023-02-15T14:58:32;42.28;;;17.45;;
75289;SDS011;63883;48.996;20.804;2023-02-15T15:01:07;31.13;;;15.75;;
75289;SDS011;63883;48.996;20.804;2023-02-15T15:03:36;26.75;;;13.90;;
75289;SDS011;63883;48.996;20.804;2023-02-15T15:06:23;31.60;;;15.35;;
75289;SDS011;63883;48.996;20.804;2023-02-15T15:09:39;27.60;;;13.77;;
75289;SDS011;63883;48.996;20.804;2023-02-15T15:12:13;22.45;;;12.32;;
75289;SDS011;63883;48.996;20.804;2023-02-15T15:14:41;24.42;;;11.98;;
75289;SDS011;63883;48.996;20.804;2023-02-15T15:17:13;21.38;;;11.02;;
75289;SDS011;63883;48.996;20.804;2023-02-15T15:20:04;22.60;;;11.73;;
75289;SDS011;63883;48.996;20.804;2023-02-15T15:22:50;21.90;;;10.68;;
75289;SDS011;63883;48.996;20.804;2023-02-15T15:25:44;22.38;;;11.15;;
75289;SDS011;63883;48.996;20.804;2023-02-15T15:28:56;21.65;;;10.95;;
75289;SDS011;63883;48.996;20.804;2023-02-15T15:45:56;34.17;;;14.55;;
75289;SDS011;63883;48.996;20.804;2023-02-15T15:48:32;52.65;;;20.55;;
75289;SDS011;63883;48.996;20.804;2023-02-15T15:51:05;42.50;;;17.70;;
75289;SDS011;63883;48.996;20.804;2023-02-15T15:53:40;35.35;;;14.70;;
75289;SDS011;63883;48.996;20.804;2023-02-15T15:56:12;40.25;;;16.75;;
75289;SDS011;63883;48.996;20.804;2023-02-15T15:58:43;39.03;;;16.42;;
75289;SDS011;63883;48.996;20.804;2023-02-15T16:01:13;30.98;;;13.40;;
75289;SDS011;63883;48.996;20.804;2023-02-15T16:03:48;30.65;;;14.00;;
75289;SDS011;63883;48.996;20.804;2023-02-15T16:06:35;31.58;;;13.80;;
75289;SDS011;63883;48.996;20.804;2023-02-15T16:09:19;29.45;;;14.23;;
75289;SDS011;63883;48.996;20.804;2023-02-15T16:11:47;25.70;;;13.32;;
75289;SDS011;63883;48.996;20.804;2023-02-15T16:14:16;36.97;;;15.52;;
75289;SDS011;63883;48.996;20.804;2023-02-15T16:16:46;33.15;;;16.17;;
75289;SDS011;63883;48.996;20.804;2023-02-15T16:19:17;38.15;;;17.20;;
75289;SDS011;63883;48.996;20.804;2023-02-15T16:21:46;33.90;;;14.77;;
75289;SDS011;63883;48.996;20.804;2023-02-15T16:27:11;37.92;;;17.77;;
75289;SDS011;63883;48.996;20.804;2023-02-15T16:29:39;36.65;;;16.95;;
75289;SDS011;63883;48.996;20.804;2023-02-15T16:34:53;61.72;;;25.42;;
75289;SDS011;63883;48.996;20.804;2023-02-15T16:37:24;65.72;;;27.08;;
75289;SDS011;63883;48.996;20.804;2023-02-15T16:39:53;78.70;;;30.30;;
75289;SDS011;63883;48.996;20.804;2023-02-15T16:42:20;91.55;;;35.88;;
75289;SDS011;63883;48.996;20.804;2023-02-15T16:44:48;85.35;;;34.75;;
75289;SDS011;63883;48.996;20.804;2023-02-15T16:47:19;68.28;;;28.40;;
75289;SDS011;63883;48.996;20.804;2023-02-15T16:49:49;80.95;;;33.42;;
75289;SDS011;63883;48.996;20.804;2023-02-15T16:52:19;88.18;;;33.08;;
75289;SDS011;63883;48.996;20.804;2023-02-15T16:54:53;95.70;;;37.72;;
75289;SDS011;63883;48.996;20.804;2023-02-15T16:57:23;91.80;;;36.38;;
75289;SDS011;63883;48.996;20.804;2023-02-15T16:59:53;75.70;;;29.13;;
75289;SDS011;63883;48.996;20.804;2023-02-15T17:02:25;90.55;;;35.60;;
75289;SDS011;63883;48.996;20.804;2023-02-15T17:07:38;81.10;;;33.33;;
75289;SDS011;63883;48.996;20.804;2023-02-15T17:10:25;64.53;;;28.52;;
75289;SDS011;63883;48.996;20.804;2023-02-15T17:13:09;67.57;;;28.52;;
75289;SDS011;63883;48.996;20.804;2023-02-15T17:15:37;85.82;;;33.33;;
75289;SDS011;63883;48.996;20.804;2023-02-15T17:18:08;109.63;;;41.15;;
75289;SDS011;63883;48.996;20.804;2023-02-15T17:20:46;105.15;;;41.67;;
75289;SDS011;63883;48.996;20.804;2023-02-15T17:28:22;118.32;;;42.22;;
75289;SDS011;63883;48.996;20.804;2023-02-15T17:30:50;118.25;;;41.28;;
75289;SDS011;63883;48.996;20.804;2023-02-15T17:33:40;90.13;;;36.15;;
75289;SDS011;63883;48.996;20.804;2023-02-15T17:38:40;82.53;;;34.38;;
75289;SDS011;63883;48.996;20.804;2023-02-15T17:41:27;125.40;;;46.13;;
75289;SDS011;63883;48.996;20.804;2023-02-15T17:43:54;122.35;;;45.97;;
75289;SDS011;63883;48.996;20.804;2023-02-15T17:46:21;102.28;;;41.70;;